Time;durP1;ratioP1;P1;durP2;ratioP2;P2;SDS_P1;SDS_P2;PMS_P1;PMS_P2;Temp;Humidity;BMP_temperature;BMP_pressure;BME280_temperature;BME280_humidity;BME280_pressure;Samples;Min_cycle;Max_cycle;Signal;HPM_P1;HPM_P2
2021/11/20 00:03:33;;;;;;;26.05;9.20;;;;;;;;;;10390003;28;20811;-70
2021/11/20 00:08:36;;;;;;;10.77;3.50;;;;;;;;;;10391891;28;20084;-71
2021/11/20 00:13:42;;;;;;;13.00;4.47;;;;;;;;;;10387919;28;20398;-71
2021/11/20 00:18:45;;;;;;;26.40;9.10;;;;;;;;;;10397039;28;20045;-72
2021/11/20 00:23:49;;;;;;;24.13;8.73;;;;;;;;;;10393731;28;20536;-71
2021/11/20 00:29:11;;;;;;;19.30;5.75;;;;;;;;;;10387732;28;20091;-72
2021/11/20 00:34:16;;;;;;;16.17;5.63;;;;;;;;;;10392658;28;20391;-71
2021/11/20 00:39:20;;;;;;;22.63;6.88;;;;;;;;;;10399608;28;20061;-69
2021/11/20 00:44:25;;;;;;;22.67;7.43;;;;;;;;;;10393591;28;20057;-71
2021/11/20 00:49:27;;;;;;;8.70;3.30;;;;;;;;;;10401799;28;20073;-72
2021/11/20 00:54:31;;;;;;;10.50;3.75;;;;;;;;;;10390475;28;20073;-71
2021/11/20 00:59:35;;;;;;;23.87;8.33;;;;;;;;;;10392651;28;20052;-71
2021/11/20 01:04:38;;;;;;;21.55;7.55;;;;;;;;;;10395054;28;20072;-71
2021/11/20 01:09:43;;;;;;;21.33;7.05;;;;;;;;;;10386814;28;20139;-71
2021/11/20 01:14:48;;;;;;;22.25;7.88;;;;;;;;;;10394943;28;20060;-72
2021/11/20 01:19:52;;;;;;;21.70;7.38;;;;;;;;;;10402109;28;20120;-71
2021/11/20 01:24:55;;;;;;;15.43;4.50;;;;;;;;;;10400295;28;20033;-71
2021/11/20 01:29:59;;;;;;;22.83;8.02;;;;;;;;;;10386927;28;20447;-71
2021/11/20 01:35:03;;;;;;;13.90;5.68;;;;;;;;;;10393061;28;20041;-71
2021/11/20 01:40:08;;;;;;;14.27;3.90;;;;;;;;;;10397468;28;20081;-72
2021/11/20 01:45:14;;;;;;;19.83;5.95;;;;;;;;;;10379464;28;20038;-72
2021/11/20 01:50:18;;;;;;;8.33;2.83;;;;;;;;;;10395789;28;20145;-71
2021/11/20 01:55:24;;;;;;;7.43;3.47;;;;;;;;;;10390450;28;20045;-72
2021/11/20 02:00:32;;;;;;;7.03;3.53;;;;;;;;;;10384360;28;20061;-71
2021/11/20 02:05:38;;;;;;;12.52;3.92;;;;;;;;;;10397033;28;20052;-71
2021/11/20 02:10:44;;;;;;;17.45;7.07;;;;;;;;;;10391248;28;20049;-71
2021/11/20 02:15:51;;;;;;;20.30;8.02;;;;;;;;;;10391243;28;20064;-72
2021/11/20 02:20:57;;;;;;;24.83;7.97;;;;;;;;;;10393345;28;20049;-72
2021/11/20 02:26:18;;;;;;;8.93;4.18;;;;;;;;;;10394365;28;20531;-71
2021/11/20 02:31:43;;;;;;;21.58;6.10;;;;;;;;;;10399415;28;20053;-72
2021/11/20 02:37:03;;;;;;;20.08;5.95;;;;;;;;;;10398981;28;20041;-71
2021/11/20 02:42:11;;;;;;;13.23;5.05;;;;;;;;;;10397406;28;20037;-71
2021/11/20 02:47:21;;;;;;;14.53;5.03;;;;;;;;;;10396214;28;20092;-70
2021/11/20 02:52:24;;;;;;;10.97;4.23;;;;;;;;;;10395793;28;20049;-72
2021/11/20 02:57:29;;;;;;;22.77;6.53;;;;;;;;;;10396850;28;20065;-71
2021/11/20 03:02:33;;;;;;;12.27;4.07;;;;;;;;;;10397108;28;20045;-72
2021/11/20 03:07:36;;;;;;;11.80;4.05;;;;;;;;;;10398122;28;20535;-72
2021/11/20 03:12:39;;;;;;;20.65;6.55;;;;;;;;;;10401674;28;20116;-70
2021/11/20 03:17:44;;;;;;;7.80;3.17;;;;;;;;;;10399464;28;20083;-70
2021/11/20 03:22:46;;;;;;;;;;;;;;;;;;10399478;28;20448;-70
2021/11/20 03:27:49;;;;;;;14.55;4.47;;;;;;;;;;10401346;28;20344;-71
2021/11/20 03:32:53;;;;;;;15.30;4.45;;;;;;;;;;10396007;28;20482;-71
2021/11/20 03:37:56;;;;;;;;;;;;;;;;;;10389206;28;20509;-72
2021/11/20 03:42:58;;;;;;;18.50;5.22;;;;;;;;;;10395285;28;19925;-70
2021/11/20 03:48:05;;;;;;;7.65;2.60;;;;;;;;;;10392985;28;20558;-72
2021/11/20 03:53:07;;;;;;;14.30;3.35;;;;;;;;;;10393215;28;20517;-71
2021/11/20 03:58:10;;;;;;;18.05;5.35;;;;;;;;;;10394492;28;20487;-71
2021/11/20 04:03:20;;;;;;;19.08;5.45;;;;;;;;;;10404373;28;20455;-71
2021/11/20 04:08:24;;;;;;;16.25;5.50;;;;;;;;;;10398497;28;20044;-72
2021/11/20 04:13:27;;;;;;;;;;;;;;;;;;10401383;28;20444;-71
2021/11/20 04:18:51;;;;;;;14.88;5.18;;;;;;;;;;10391519;28;20243;-72
2021/11/20 04:23:54;;;;;;;;;;;;;;;;;;10399321;28;20041;-71
2021/11/20 04:28:57;;;;;;;17.85;5.47;;;;;;;;;;10399486;28;19971;-71
2021/11/20 04:34:21;;;;;;;18.25;5.90;;;;;;;;;;10393586;28;20043;-70
2021/11/20 04:39:24;;;;;;;14.23;4.40;;;;;;;;;;10402084;28;20040;-70
2021/11/20 04:44:27;;;;;;;16.15;6.07;;;;;;;;;;10393892;28;20125;-71
2021/11/20 04:49:31;;;;;;;10.90;4.28;;;;;;;;;;10395725;28;20038;-72
2021/11/20 04:54:34;;;;;;;15.93;5.85;;;;;;;;;;10400243;28;20498;-72
2021/11/20 04:59:57;;;;;;;9.63;4.68;;;;;;;;;;10395980;28;20061;-72
2021/11/20 05:05:01;;;;;;;16.65;5.60;;;;;;;;;;10390757;28;20168;-71
2021/11/20 05:10:05;;;;;;;14.52;5.57;;;;;;;;;;10393631;28;20158;-74
2021/11/20 05:15:09;;;;;;;13.73;4.85;;;;;;;;;;10396290;28;20497;-72
2021/11/20 05:20:13;;;;;;;13.75;5.13;;;;;;;;;;10393683;28;20065;-72
2021/11/20 05:25:19;;;;;;;14.85;5.22;;;;;;;;;;10390313;28;20037;-71
2021/11/20 05:30:27;;;;;;;11.48;4.20;;;;;;;;;;10390846;28;20501;-70
2021/11/20 05:35:32;;;;;;;16.33;5.45;;;;;;;;;;10390698;28;20045;-70
2021/11/20 05:40:37;;;;;;;13.40;5.60;;;;;;;;;;10393446;28;20469;-71
2021/11/20 05:45:41;;;;;;;15.95;5.63;;;;;;;;;;10396594;28;20105;-72
2021/11/20 05:50:45;;;;;;;9.90;4.28;;;;;;;;;;10390964;28;20041;-72
2021/11/20 05:55:48;;;;;;;;;;;;;;;;;;10401557;28;20072;-72
2021/11/20 06:00:52;;;;;;;16.90;5.30;;;;;;;;;;10400224;28;20148;-71
2021/11/20 06:05:57;;;;;;;14.85;5.25;;;;;;;;;;10393178;28;20054;-71
2021/11/20 06:11:01;;;;;;;16.15;5.57;;;;;;;;;;10392914;28;20061;-72
2021/11/20 06:16:04;;;;;;;15.40;6.00;;;;;;;;;;10393875;28;20045;-71
2021/11/20 06:21:09;;;;;;;18.33;5.80;;;;;;;;;;10399128;28;20055;-72
2021/11/20 06:26:12;;;;;;;12.60;5.25;;;;;;;;;;10390355;28;20603;-71
2021/11/20 06:31:15;;;;;;;17.52;5.80;;;;;;;;;;10398186;28;20050;-73
2021/11/20 06:36:21;;;;;;;14.65;4.93;;;;;;;;;;10397235;28;20068;-73
2021/11/20 06:41:24;;;;;;;15.77;5.30;;;;;;;;;;10397703;28;20037;-73
2021/11/20 06:46:27;;;;;;;14.02;5.05;;;;;;;;;;10406353;28;20042;-72
2021/11/20 06:51:31;;;;;;;15.35;5.75;;;;;;;;;;10402630;28;20049;-73
2021/11/20 06:56:43;;;;;;;15.48;5.13;;;;;;;;;;10413465;28;20038;-71
2021/11/20 07:01:47;;;;;;;17.48;6.15;;;;;;;;;;10393573;28;20057;-70
2021/11/20 07:06:50;;;;;;;;;;;;;;;;;;10397622;28;20481;-72
2021/11/20 07:11:54;;;;;;;15.60;5.45;;;;;;;;;;10394733;28;20372;-72
2021/11/20 07:16:58;;;;;;;17.15;5.38;;;;;;;;;;10401051;28;20124;-71
2021/11/20 07:22:01;;;;;;;18.17;6.23;;;;;;;;;;10396613;28;20148;-73
2021/11/20 07:27:06;;;;;;;15.32;6.25;;;;;;;;;;10397664;28;20960;-74
2021/11/20 07:32:09;;;;;;;15.00;5.00;;;;;;;;;;10401488;28;20053;-73
2021/11/20 07:37:12;;;;;;;17.83;6.10;;;;;;;;;;10398727;28;20033;-72
2021/11/20 07:42:17;;;;;;;15.45;5.43;;;;;;;;;;10405570;28;20045;-71
2021/11/20 07:47:20;;;;;;;15.35;5.82;;;;;;;;;;10397631;28;20038;-71
2021/11/20 07:52:22;;;;;;;13.90;5.03;;;;;;;;;;10402809;28;20060;-71
2021/11/20 07:57:27;;;;;;;17.60;6.45;;;;;;;;;;10397974;28;20037;-72
2021/11/20 08:02:29;;;;;;;;;;;;;;;;;;10404043;28;20072;-70
2021/11/20 08:07:35;;;;;;;18.23;6.28;;;;;;;;;;10406372;28;19921;-72
2021/11/20 08:12:39;;;;;;;12.70;4.93;;;;;;;;;;10404150;28;20551;-71
2021/11/20 08:17:42;;;;;;;;;;;;;;;;;;10396078;28;20041;-71
2021/11/20 08:22:45;;;;;;;12.38;3.95;;;;;;;;;;10398309;28;20413;-71
2021/11/20 08:27:50;;;;;;;11.60;4.90;;;;;;;;;;10394893;28;20477;-69
2021/11/20 08:32:53;;;;;;;13.02;5.13;;;;;;;;;;10401161;28;20037;-70
2021/11/20 08:37:56;;;;;;;14.27;5.80;;;;;;;;;;10398684;28;20041;-69
2021/11/20 08:43:01;;;;;;;12.05;4.82;;;;;;;;;;10394570;28;20092;-72
2021/11/20 08:48:04;;;;;;;11.60;3.92;;;;;;;;;;10394760;28;20111;-69
2021/11/20 08:53:07;;;;;;;11.93;5.03;;;;;;;;;;10400354;28;20041;-70
2021/11/20 08:58:12;;;;;;;16.50;4.83;;;;;;;;;;10397090;28;20068;-67
2021/11/20 09:03:17;;;;;;;12.55;4.85;;;;;;;;;;10395771;28;20043;-69
2021/11/20 09:08:23;;;;;;;17.98;5.80;;;;;;;;;;10399149;28;20080;-69
2021/11/20 09:13:30;;;;;;;9.68;4.60;;;;;;;;;;10405123;28;20069;-70
2021/11/20 09:18:34;;;;;;;12.00;5.07;;;;;;;;;;10394763;28;20045;-72
2021/11/20 09:23:37;;;;;;;10.02;4.57;;;;;;;;;;10400936;28;20112;-69
2021/11/20 09:28:49;;;;;;;10.18;4.30;;;;;;;;;;10384553;28;20116;-68
2021/11/20 09:33:52;;;;;;;9.30;3.92;;;;;;;;;;10390343;28;20042;-67
2021/11/20 09:38:55;;;;;;;10.70;4.57;;;;;;;;;;10392745;28;20069;-69
2021/11/20 09:44:00;;;;;;;9.45;4.47;;;;;;;;;;10390464;28;20967;-68
2021/11/20 09:49:05;;;;;;;9.30;4.25;;;;;;;;;;10392454;28;20045;-69
2021/11/20 09:54:10;;;;;;;10.73;4.20;;;;;;;;;;10391678;28;20045;-68
2021/11/20 09:59:19;;;;;;;7.60;3.47;;;;;;;;;;10381521;28;20041;-67
2021/11/20 10:04:25;;;;;;;5.55;2.40;;;;;;;;;;10392280;28;20505;-68
2021/11/20 10:09:30;;;;;;;7.03;2.60;;;;;;;;;;10387166;28;20143;-68
2021/11/20 10:14:37;;;;;;;3.53;1.90;;;;;;;;;;10388642;28;20083;-68
2021/11/20 10:19:51;;;;;;;1.90;1.20;;;;;;;;;;10387340;28;20502;-70
2021/11/20 10:25:08;;;;;;;4.13;2.10;;;;;;;;;;10384436;28;20225;-71
2021/11/20 10:30:23;;;;;;;1.08;0.98;;;;;;;;;;10392658;28;20041;-72
2021/11/20 10:35:28;;;;;;;5.15;1.10;;;;;;;;;;10388126;28;20041;-70
2021/11/20 10:40:32;;;;;;;3.38;1.30;;;;;;;;;;10392082;28;20041;-69
2021/11/20 10:45:45;;;;;;;1.98;1.30;;;;;;;;;;10386683;28;20049;-71
2021/11/20 10:50:49;;;;;;;2.85;1.40;;;;;;;;;;10396642;28;20133;-70
2021/11/20 10:55:59;;;;;;;3.60;1.65;;;;;;;;;;10397215;28;20391;-71
2021/11/20 11:01:31;;;;;;;3.03;1.55;;;;;;;;;;10393840;28;20080;-71
2021/11/20 11:06:52;;;;;;;2.70;1.73;;;;;;;;;;10394178;28;20037;-72
2021/11/20 11:11:58;;;;;;;2.70;1.52;;;;;;;;;;10391818;28;20099;-71
2021/11/20 11:17:04;;;;;;;3.42;1.70;;;;;;;;;;10397643;28;20045;-70
2021/11/20 11:22:13;;;;;;;3.58;1.88;;;;;;;;;;10393047;28;20049;-71
2021/11/20 11:27:18;;;;;;;3.45;2.00;;;;;;;;;;10397393;28;20045;-72
2021/11/20 11:32:21;;;;;;;3.80;1.73;;;;;;;;;;10393093;28;20050;-72
2021/11/20 11:37:32;;;;;;;3.40;2.23;;;;;;;;;;10391723;28;20056;-72
2021/11/20 11:42:54;;;;;;;1.48;0.98;;;;;;;;;;10403221;28;20149;-72
2021/11/20 11:47:59;;;;;;;5.00;2.58;;;;;;;;;;10398616;28;20269;-71
2021/11/20 11:53:21;;;;;;;5.32;2.10;;;;;;;;;;10396976;28;20037;-71
2021/11/20 11:58:46;;;;;;;4.68;2.33;;;;;;;;;;10397601;28;20048;-72
2021/11/20 12:04:05;;;;;;;4.05;2.30;;;;;;;;;;10396090;28;20045;-72
2021/11/20 12:09:13;;;;;;;2.25;1.23;;;;;;;;;;10411373;28;20192;-71
2021/11/20 12:14:18;;;;;;;2.78;1.65;;;;;;;;;;10420827;28;20079;-71
2021/11/20 12:19:28;;;;;;;4.70;2.55;;;;;;;;;;10404711;28;20045;-72
2021/11/20 12:24:43;;;;;;;4.30;2.40;;;;;;;;;;10398220;28;20112;-70
2021/11/20 12:29:52;;;;;;;5.53;2.92;;;;;;;;;;10395191;28;20125;-69
2021/11/20 12:35:05;;;;;;;5.80;2.60;;;;;;;;;;10396415;28;20095;-72
2021/11/20 12:40:19;;;;;;;3.33;1.40;;;;;;;;;;10390388;28;20493;-71
2021/11/20 12:45:33;;;;;;;5.22;2.72;;;;;;;;;;10390534;28;20057;-71
2021/11/20 12:50:48;;;;;;;5.40;2.47;;;;;;;;;;10389750;28;20104;-70
2021/11/20 12:56:12;;;;;;;5.78;2.70;;;;;;;;;;10406255;28;20048;-71
2021/11/20 13:01:17;;;;;;;4.45;2.50;;;;;;;;;;10398959;28;20041;-72
2021/11/20 13:06:23;;;;;;;7.85;2.58;;;;;;;;;;10392273;28;20041;-70
2021/11/20 13:11:31;;;;;;;4.63;2.58;;;;;;;;;;10394395;28;20041;-71
2021/11/20 13:16:44;;;;;;;4.75;2.78;;;;;;;;;;10390058;28;20043;-70
2021/11/20 13:22:14;;;;;;;4.57;2.33;;;;;;;;;;10391038;28;20026;-70
2021/11/20 13:27:35;;;;;;;5.18;2.70;;;;;;;;;;10387686;28;20041;-71
2021/11/20 13:32:42;;;;;;;6.00;2.65;;;;;;;;;;10389553;28;20461;-70
2021/11/20 13:37:51;;;;;;;4.75;2.45;;;;;;;;;;10382037;28;20347;-72
2021/11/20 13:42:54;;;;;;;5.40;2.72;;;;;;;;;;10382977;28;20049;-71
2021/11/20 13:47:58;;;;;;;5.30;2.60;;;;;;;;;;10398622;28;20458;-71
2021/11/20 13:53:01;;;;;;;3.83;2.13;;;;;;;;;;10390043;28;20063;-71
2021/11/20 13:58:04;;;;;;;5.50;1.57;;;;;;;;;;10389178;28;20494;-72
2021/11/20 14:03:09;;;;;;;8.48;3.80;;;;;;;;;;10396194;28;20502;-72
2021/11/20 14:08:14;;;;;;;9.02;4.28;;;;;;;;;;10404669;28;20228;-71
2021/11/20 14:13:19;;;;;;;3.42;1.40;;;;;;;;;;10384593;28;20046;-71
2021/11/20 14:18:24;;;;;;;5.60;3.08;;;;;;;;;;10384823;28;20053;-70
2021/11/20 14:23:27;;;;;;;7.68;3.15;;;;;;;;;;10383720;28;20132;-71
2021/11/20 14:28:34;;;;;;;6.97;3.23;;;;;;;;;;10400988;28;20037;-70
2021/11/20 14:33:48;;;;;;;5.57;2.85;;;;;;;;;;10406075;28;20121;-72
2021/11/20 14:38:52;;;;;;;6.85;2.83;;;;;;;;;;10400417;28;20045;-72
2021/11/20 14:44:00;;;;;;;10.35;3.80;;;;;;;;;;10396799;28;20525;-72
2021/11/20 14:49:18;;;;;;;7.78;3.45;;;;;;;;;;10397202;28;20201;-70
2021/11/20 14:54:22;;;;;;;6.22;3.13;;;;;;;;;;10412573;28;20116;-71
2021/11/20 14:59:24;;;;;;;;;;;;;;;;;;10395409;28;20037;-71
2021/11/20 15:04:29;;;;;;;6.85;2.97;;;;;;;;;;10397190;28;19929;-71
2021/11/20 15:09:32;;;;;;;4.13;2.65;;;;;;;;;;10395300;28;20052;-70
2021/11/20 15:14:35;;;;;;;8.73;3.93;;;;;;;;;;10392305;28;20049;-71
2021/11/20 15:19:39;;;;;;;4.45;2.28;;;;;;;;;;10395311;28;20034;-71
2021/11/20 15:24:42;;;;;;;4.90;2.33;;;;;;;;;;10389010;28;20155;-70
2021/11/20 15:29:44;;;;;;;7.90;3.25;;;;;;;;;;10391005;28;20082;-70
2021/11/20 15:34:49;;;;;;;7.20;3.92;;;;;;;;;;10393924;28;20084;-71
2021/11/20 15:39:52;;;;;;;7.90;3.95;;;;;;;;;;10394958;28;20042;-71
2021/11/20 15:44:55;;;;;;;7.67;3.60;;;;;;;;;;10397415;28;20431;-71
2021/11/20 15:49:59;;;;;;;10.65;3.97;;;;;;;;;;10403549;28;20041;-71
2021/11/20 15:55:02;;;;;;;5.10;2.67;;;;;;;;;;10403353;28;20042;-72
2021/11/20 16:00:06;;;;;;;4.40;2.28;;;;;;;;;;10402413;28;20049;-72
2021/11/20 16:05:10;;;;;;;4.40;2.25;;;;;;;;;;10399239;28;20072;-70
2021/11/20 16:10:13;;;;;;;;;;;;;;;;;;10404978;28;20512;-71
2021/11/20 16:15:16;;;;;;;9.38;5.18;;;;;;;;;;10393211;28;19951;-71
2021/11/20 16:20:21;;;;;;;6.05;2.90;;;;;;;;;;10393363;28;20042;-72
2021/11/20 16:25:24;;;;;;;6.55;2.45;;;;;;;;;;10395359;28;20041;-70
2021/11/20 16:30:27;;;;;;;4.57;2.53;;;;;;;;;;10392554;28;20111;-70
2021/11/20 16:35:31;;;;;;;5.60;3.40;;;;;;;;;;10399221;28;20059;-71
2021/11/20 16:40:34;;;;;;;5.63;3.42;;;;;;;;;;10387130;28;20045;-70
2021/11/20 16:45:39;;;;;;;6.65;2.65;;;;;;;;;;10393058;28;20053;-71
2021/11/20 16:50:59;;;;;;;8.93;4.85;;;;;;;;;;10392783;28;20103;-70
2021/11/20 16:56:02;;;;;;;10.13;4.97;;;;;;;;;;10386167;28;20045;-71
2021/11/20 17:01:05;;;;;;;;;;;;;;;;;;10396317;28;20045;-70
2021/11/20 17:06:10;;;;;;;10.35;4.55;;;;;;;;;;10390904;28;20016;-70
2021/11/20 17:11:13;;;;;;;;;;;;;;;;;;10385505;28;20045;-71
2021/11/20 17:16:16;;;;;;;13.68;5.45;;;;;;;;;;10393946;28;19925;-70
2021/11/20 17:21:25;;;;;;;16.90;6.15;;;;;;;;;;10389256;28;20618;-70
2021/11/20 17:26:28;;;;;;;11.75;5.90;;;;;;;;;;10388190;28;20095;-69
2021/11/20 17:31:33;;;;;;;15.65;6.40;;;;;;;;;;10393056;28;20465;-71
2021/11/20 17:36:37;;;;;;;6.07;3.15;;;;;;;;;;10389549;28;20120;-70
2021/11/20 17:41:41;;;;;;;15.38;6.60;;;;;;;;;;10398473;28;20152;-70
2021/11/20 17:46:43;;;;;;;10.25;4.57;;;;;;;;;;10392797;28;20494;-70
2021/11/20 17:51:48;;;;;;;12.60;5.75;;;;;;;;;;10390926;28;21005;-69
2021/11/20 17:56:51;;;;;;;14.73;6.53;;;;;;;;;;10391413;28;20033;-71
2021/11/20 18:01:54;;;;;;;13.30;6.13;;;;;;;;;;10399395;28;20041;-71
2021/11/20 18:06:58;;;;;;;16.10;6.43;;;;;;;;;;10391285;28;20060;-70
2021/11/20 18:12:22;;;;;;;13.45;5.75;;;;;;;;;;10393062;28;20475;-71
2021/11/20 18:17:44;;;;;;;11.90;4.15;;;;;;;;;;10388652;28;20056;-69
2021/11/20 18:23:28;;;;;;;10.52;5.03;;;;;;;;;;10390281;28;20049;-70
2021/11/20 18:28:51;;;;;;;16.98;6.72;;;;;;;;;;10390899;28;20496;-71
2021/11/20 18:33:54;;;;;;;13.20;5.75;;;;;;;;;;10399795;28;20155;-69
2021/11/20 18:38:59;;;;;;;12.25;5.18;;;;;;;;;;10394699;28;20423;-71
2021/11/20 18:44:02;;;;;;;16.15;7.45;;;;;;;;;;10395130;28;20038;-71
2021/11/20 18:49:06;;;;;;;26.33;9.88;;;;;;;;;;10385148;28;20077;-71
2021/11/20 18:54:10;;;;;;;12.48;5.25;;;;;;;;;;10389476;28;20105;-71
2021/11/20 18:59:13;;;;;;;15.93;6.93;;;;;;;;;;10393260;28;20056;-71
2021/11/20 19:04:16;;;;;;;11.50;4.55;;;;;;;;;;10393671;28;20049;-70
2021/11/20 19:09:20;;;;;;;16.50;6.50;;;;;;;;;;10396278;28;20041;-72
2021/11/20 19:14:22;;;;;;;;;;;;;;;;;;10400619;28;20064;-70
2021/11/20 19:19:25;;;;;;;16.38;7.40;;;;;;;;;;10415974;28;19975;-71
2021/11/20 19:24:29;;;;;;;17.02;6.65;;;;;;;;;;10405591;28;21313;-70
2021/11/20 19:29:32;;;;;;;12.82;5.75;;;;;;;;;;10402227;28;20045;-71
2021/11/20 19:34:35;;;;;;;16.35;7.13;;;;;;;;;;10409626;28;20129;-70
2021/11/20 19:39:39;;;;;;;16.40;7.35;;;;;;;;;;10395742;28;20559;-71
2021/11/20 19:44:42;;;;;;;15.93;7.13;;;;;;;;;;10402430;28;20548;-70
2021/11/20 19:49:45;;;;;;;14.07;5.70;;;;;;;;;;10392123;28;20053;-69
2021/11/20 19:54:49;;;;;;;14.82;6.53;;;;;;;;;;10390378;28;20065;-69
2021/11/20 19:59:52;;;;;;;;;;;;;;;;;;10396731;28;20041;-70
2021/11/20 20:04:54;;;;;;;5.68;2.63;;;;;;;;;;10400925;28;19940;-71
2021/11/20 20:09:59;;;;;;;16.60;7.15;;;;;;;;;;10391916;28;20050;-69
2021/11/20 20:15:08;;;;;;;18.35;7.43;;;;;;;;;;10389287;28;20041;-68
2021/11/20 20:20:10;;;;;;;16.52;7.22;;;;;;;;;;10391609;28;20064;-68
2021/11/20 20:25:15;;;;;;;11.95;5.30;;;;;;;;;;10392384;28;20044;-70
2021/11/20 20:30:18;;;;;;;;;;;;;;;;;;10396141;28;20119;-70
2021/11/20 20:35:22;;;;;;;12.75;4.72;;;;;;;;;;10402047;28;19921;-70
2021/11/20 20:40:27;;;;;;;19.88;8.23;;;;;;;;;;10398756;28;20439;-68
2021/11/20 20:45:30;;;;;;;14.50;5.75;;;;;;;;;;10393057;28;20526;-70
2021/11/20 20:50:35;;;;;;;16.58;6.70;;;;;;;;;;10395212;28;20059;-70
2021/11/20 20:55:39;;;;;;;4.47;2.03;;;;;;;;;;10394433;28;20107;-71
2021/11/20 21:00:42;;;;;;;;;;;;;;;;;;10394330;28;20053;-70
2021/11/20 21:05:45;;;;;;;10.13;4.78;;;;;;;;;;10396020;28;19940;-71
2021/11/20 21:10:49;;;;;;;25.05;9.15;;;;;;;;;;10389453;28;20034;-71
2021/11/20 21:15:52;;;;;;;18.38;8.55;;;;;;;;;;10410401;28;20068;-70
2021/11/20 21:26:16;;;;;;;18.40;7.88;;;;;;;;;;10389192;28;20049;-73
2021/11/20 21:31:19;;;;;;;;;;;;;;;;;;10396224;28;20387;-70
2021/11/20 21:36:26;;;;;;;20.40;7.50;;;;;;;;;;10394454;28;19931;-70
2021/11/20 21:41:30;;;;;;;17.13;6.70;;;;;;;;;;10398378;28;20041;-71
2021/11/20 21:46:33;;;;;;;20.48;7.78;;;;;;;;;;10397936;28;20048;-71
2021/11/20 21:51:36;;;;;;;22.95;9.02;;;;;;;;;;10390318;28;20045;-70
2021/11/20 21:56:40;;;;;;;13.85;5.30;;;;;;;;;;10416243;28;20057;-70
2021/11/20 22:01:43;;;;;;;20.50;8.02;;;;;;;;;;10415710;28;20109;-71
2021/11/20 22:07:06;;;;;;;19.45;7.15;;;;;;;;;;10409055;28;20053;-68
2021/11/20 22:12:12;;;;;;;21.33;7.72;;;;;;;;;;10410977;28;20049;-69
2021/11/20 22:17:15;;;;;;;21.90;7.40;;;;;;;;;;10403327;28;20038;-67
2021/11/20 22:22:19;;;;;;;22.03;7.13;;;;;;;;;;10385516;28;20053;-70
2021/11/20 22:27:23;;;;;;;18.88;7.50;;;;;;;;;;10398044;28;20072;-70
2021/11/20 22:32:25;;;;;;;;;;;;;;;;;;10397505;28;20042;-69
2021/11/20 22:37:28;;;;;;;20.35;6.97;;;;;;;;;;10384696;28;20099;-69
2021/11/20 22:42:32;;;;;;;13.77;5.40;;;;;;;;;;10399354;28;20034;-70
2021/11/20 22:47:37;;;;;;;28.48;10.30;;;;;;;;;;10400805;28;20042;-68
2021/11/20 22:53:00;;;;;;;19.88;5.57;;;;;;;;;;10406268;28;20056;-68
2021/11/20 22:58:07;;;;;;;24.05;8.55;;;;;;;;;;10399746;28;20383;-69
2021/11/20 23:03:32;;;;;;;33.63;10.38;;;;;;;;;;10398571;28;20089;-69
2021/11/20 23:08:35;;;;;;;18.20;6.03;;;;;;;;;;10400427;28;20046;-69
2021/11/20 23:13:40;;;;;;;17.60;5.63;;;;;;;;;;10399889;28;20714;-69
2021/11/20 23:18:42;;;;;;;18.67;7.45;;;;;;;;;;10398144;28;20033;-69
2021/11/20 23:23:46;;;;;;;23.73;8.27;;;;;;;;;;10399695;28;20046;-69
2021/11/20 23:28:50;;;;;;;20.50;7.03;;;;;;;;;;10395941;28;20041;-69
2021/11/20 23:33:52;;;;;;;;;;;;;;;;;;10396012;28;20391;-70
2021/11/20 23:38:55;;;;;;;23.30;7.30;;;;;;;;;;10399416;28;19925;-69
2021/11/20 23:44:00;;;;;;;21.73;8.10;;;;;;;;;;10397126;28;20057;-69
2021/11/20 23:49:02;;;;;;;;;;;;;;;;;;10392022;28;20151;-68
2021/11/20 23:54:08;;;;;;;19.17;6.20;;;;;;;;;;10402339;28;20393;-68
2021/11/20 23:59:13;;;;;;;18.93;7.73;;;;;;;;;;10392768;28;20042;-68
